Time;durP1;ratioP1;P1;durP2;ratioP2;P2;SDS_P1;SDS_P2;PMS_P1;PMS_P2;Temp;Humidity;BMP_temperature;BMP_pressure;BME280_temperature;BME280_humidity;BME280_pressure;Samples;Min_cycle;Max_cycle;Signal;HPM_P1;HPM_P2
2022/09/12 00:01:06;;;;;;;15.20;10.40;;;16.40;76.40;;;;;;4995782;28;20497;-75
2022/09/12 00:03:34;;;;;;;17.33;10.47;;;16.40;76.30;;;;;;5002162;28;20579;-75
2022/09/12 00:06:07;;;;;;;15.70;10.80;;;16.40;76.20;;;;;;4998092;28;21101;-75
2022/09/12 00:08:35;;;;;;;16.00;10.40;;;16.40;76.30;;;;;;4997268;28;20481;-75
2022/09/12 00:11:09;;;;;;;17.93;11.30;;;16.30;76.30;;;;;;4997346;28;20663;-75
2022/09/12 00:13:38;;;;;;;18.37;10.53;;;16.30;76.30;;;;;;4999593;28;20492;-75
2022/09/12 00:16:16;;;;;;;15.27;10.07;;;16.30;76.50;;;;;;4998952;28;20475;-75
2022/09/12 00:18:45;;;;;;;16.00;9.60;;;16.30;76.60;;;;;;4997966;28;20483;-76
2022/09/12 00:21:14;;;;;;;16.03;10.47;;;16.30;76.60;;;;;;4998000;28;20610;-76
2022/09/12 00:23:42;;;;;;;15.60;9.30;;;16.40;76.50;;;;;;5005994;28;20797;-76
2022/09/12 00:26:10;;;;;;;14.50;9.00;;;16.40;76.40;;;;;;4998781;28;20480;-75
2022/09/12 00:28:40;;;;;;;14.83;9.90;;;16.30;76.40;;;;;;5001124;28;20533;-75
2022/09/12 00:31:10;;;;;;;13.47;8.50;;;16.30;76.30;;;;;;5002037;28;20516;-75
2022/09/12 00:33:39;;;;;;;14.00;8.87;;;16.30;76.20;;;;;;5001280;28;20450;-75
2022/09/12 00:36:10;;;;;;;15.67;9.50;;;16.20;76.20;;;;;;4995434;28;20557;-75
2022/09/12 00:38:40;;;;;;;14.13;8.77;;;16.20;76.20;;;;;;4993886;28;20469;-76
2022/09/12 00:41:14;;;;;;;14.60;9.37;;;16.20;76.20;;;;;;5005587;28;20533;-76
2022/09/12 00:43:44;;;;;;;16.83;10.30;;;16.20;76.20;;;;;;5001862;28;20466;-75
2022/09/12 00:46:21;;;;;;;15.57;9.93;;;16.10;76.20;;;;;;4999391;28;20493;-75
2022/09/12 00:48:55;;;;;;;16.30;9.53;;;16.10;76.10;;;;;;5001430;28;20503;-75
2022/09/12 00:51:23;;;;;;;17.90;10.50;;;16.10;76.10;;;;;;5001763;28;21052;-76
2022/09/12 00:53:54;;;;;;;14.80;10.13;;;16.10;76.00;;;;;;5000355;28;20491;-76
2022/09/12 00:56:23;;;;;;;14.40;9.50;;;16.00;76.10;;;;;;4996047;28;20466;-76
2022/09/12 00:58:57;;;;;;;14.20;10.00;;;16.00;76.10;;;;;;4999220;28;20472;-76
2022/09/12 01:01:25;;;;;;;14.57;9.63;;;16.00;76.00;;;;;;4999202;28;20544;-76
2022/09/12 01:04:01;;;;;;;14.93;10.00;;;16.00;76.00;;;;;;5001733;28;20480;-76
2022/09/12 01:06:34;;;;;;;17.50;10.53;;;16.00;76.00;;;;;;4994401;28;20465;-75
2022/09/12 01:09:04;;;;;;;17.30;10.90;;;15.90;76.10;;;;;;5002842;28;20504;-75
2022/09/12 01:11:34;;;;;;;24.00;13.83;;;15.90;76.30;;;;;;4998118;28;20480;-75
2022/09/12 01:14:02;;;;;;;28.07;16.47;;;16.00;76.30;;;;;;4998322;28;20550;-75
2022/09/12 01:16:30;;;;;;;32.30;17.07;;;16.00;76.50;;;;;;5000725;28;20528;-75
2022/09/12 01:19:15;;;;;;;31.07;17.13;;;16.00;76.60;;;;;;5002846;28;21066;-75
2022/09/12 01:21:59;;;;;;;33.03;16.97;;;15.90;76.80;;;;;;5000235;28;21029;-75
2022/09/12 01:25:00;;;;;;;29.70;16.73;;;16.00;77.00;;;;;;4997112;28;20535;-76
2022/09/12 01:27:43;;;;;;;24.17;14.50;;;16.00;77.20;;;;;;5001503;28;20461;-75
2022/09/12 01:30:41;;;;;;;29.37;15.20;;;16.00;77.20;;;;;;4995720;28;20568;-76
2022/09/12 01:33:25;;;;;;;30.23;16.10;;;16.10;77.30;;;;;;4998005;28;20560;-75
2022/09/12 01:36:22;;;;;;;32.83;17.63;;;16.10;77.40;;;;;;4996131;28;20504;-75
2022/09/12 01:38:58;;;;;;;30.53;17.10;;;16.10;77.50;;;;;;5000418;28;20503;-76
2022/09/12 01:41:31;;;;;;;27.87;16.90;;;16.10;77.70;;;;;;5001830;28;21081;-76
2022/09/12 01:44:05;;;;;;;26.77;15.67;;;16.10;77.80;;;;;;4998424;28;20513;-76
2022/09/12 01:46:42;;;;;;;28.17;15.50;;;16.10;78.00;;;;;;5000204;28;20524;-75
2022/09/12 01:49:17;;;;;;;24.03;14.27;;;16.20;78.20;;;;;;5004250;28;20530;-76
2022/09/12 01:51:53;;;;;;;48.47;14.00;;;16.20;78.30;;;;;;4999977;28;20519;-76
2022/09/12 01:54:25;;;;;;;33.40;15.40;;;16.20;78.30;;;;;;4997359;28;20931;-75
2022/09/12 01:56:59;;;;;;;26.97;14.90;;;16.20;78.50;;;;;;5001914;28;20566;-75
2022/09/12 01:59:32;;;;;;;25.93;14.80;;;16.20;78.60;;;;;;4996104;28;20489;-75
2022/09/12 02:02:05;;;;;;;24.17;15.27;;;16.30;78.70;;;;;;5000906;28;20496;-75
2022/09/12 02:04:39;;;;;;;31.97;14.60;;;16.30;78.80;;;;;;4997956;28;20470;-75
2022/09/12 02:07:14;;;;;;;31.53;13.80;;;16.30;78.90;;;;;;4999865;28;21016;-76
2022/09/12 02:09:47;;;;;;;30.73;14.83;;;16.30;78.90;;;;;;5002678;28;20504;-75
2022/09/12 02:12:20;;;;;;;24.60;12.97;;;16.30;78.90;;;;;;4995425;28;20490;-76
2022/09/12 02:14:53;;;;;;;24.17;12.93;;;16.20;79.00;;;;;;4995700;28;20519;-75
2022/09/12 02:17:26;;;;;;;23.53;12.00;;;16.20;79.10;;;;;;4995215;28;20471;-75
2022/09/12 02:19:57;;;;;;;22.53;12.90;;;16.20;79.30;;;;;;4996982;28;20913;-76
2022/09/12 02:22:29;;;;;;;22.67;11.13;;;16.20;79.30;;;;;;4996764;28;20556;-75
2022/09/12 02:25:00;;;;;;;41.67;12.43;;;16.30;79.50;;;;;;4997991;28;20513;-76
2022/09/12 02:27:33;;;;;;;18.87;11.60;;;16.20;79.50;;;;;;4998778;28;20465;-76
2022/09/12 02:30:01;;;;;;;17.40;11.10;;;16.30;79.50;;;;;;4997888;28;20485;-75
2022/09/12 02:32:36;;;;;;;17.20;10.77;;;16.20;79.70;;;;;;4997266;28;20488;-75
2022/09/12 02:35:10;;;;;;;17.30;10.80;;;16.30;79.70;;;;;;4998244;28;20523;-74
2022/09/12 02:37:50;;;;;;;18.17;11.20;;;16.30;79.80;;;;;;5000457;28;20445;-75
2022/09/12 02:40:18;;;;;;;14.77;10.30;;;16.30;79.90;;;;;;5004232;28;20918;-76
2022/09/12 02:42:47;;;;;;;21.40;11.10;;;16.30;79.90;;;;;;5003646;28;20493;-75
2022/09/12 02:45:16;;;;;;;16.17;9.90;;;16.30;80.00;;;;;;5007860;28;20487;-76
2022/09/12 02:47:50;;;;;;;16.93;10.70;;;16.30;80.00;;;;;;5008066;28;20468;-74
2022/09/12 02:50:18;;;;;;;15.87;10.67;;;16.30;80.00;;;;;;5003700;28;20544;-75
2022/09/12 02:52:46;;;;;;;17.53;10.63;;;16.30;80.10;;;;;;5005606;28;20490;-76
2022/09/12 02:55:15;;;;;;;15.23;10.23;;;16.40;80.20;;;;;;5005942;28;20462;-75
2022/09/12 02:57:43;;;;;;;18.47;11.27;;;16.40;80.20;;;;;;5007493;28;20505;-75
2022/09/12 03:00:13;;;;;;;33.00;10.40;;;16.40;80.20;;;;;;5007598;28;20464;-76
2022/09/12 03:03:00;;;;;;;17.00;10.83;;;16.40;80.20;;;;;;5010724;28;20958;-75
2022/09/12 03:05:33;;;;;;;21.20;10.97;;;16.30;80.30;;;;;;5006433;28;20516;-75
2022/09/12 03:08:31;;;;;;;21.00;10.67;;;16.30;80.30;;;;;;5004670;28;20831;-75
2022/09/12 03:11:23;;;;;;;35.87;11.00;;;16.30;80.30;;;;;;4999163;28;20524;-75
2022/09/12 03:14:01;;;;;;;30.63;9.47;;;16.30;80.30;;;;;;4961891;28;20623;-75
2022/09/12 03:16:36;;;;;;;38.80;10.57;;;16.30;80.30;;;;;;4996788;28;21151;-75
2022/09/12 03:19:13;;;;;;;17.50;10.00;;;16.30;80.30;;;;;;5000522;28;20482;-75
2022/09/12 03:21:51;;;;;;;28.13;10.20;;;16.20;80.50;;;;;;4998072;28;20552;-76
2022/09/12 03:24:24;;;;;;;38.97;10.47;;;16.20;80.50;;;;;;5001928;28;20503;-76
2022/09/12 03:26:58;;;;;;;24.07;9.77;;;16.20;80.50;;;;;;5000852;28;20548;-76
2022/09/12 03:29:28;;;;;;;28.10;8.83;;;16.10;80.50;;;;;;4999207;28;20547;-75
2022/09/12 03:31:58;;;;;;;30.23;9.80;;;16.10;80.60;;;;;;4999350;28;20538;-75
2022/09/12 03:34:28;;;;;;;36.90;9.87;;;16.10;80.60;;;;;;4997846;28;20693;-75
2022/09/12 03:36:56;;;;;;;35.80;10.07;;;16.10;80.60;;;;;;5000834;28;20495;-76
2022/09/12 03:39:25;;;;;;;31.20;10.20;;;16.00;80.50;;;;;;5001634;28;21021;-76
2022/09/12 03:41:53;;;;;;;25.03;10.70;;;16.00;80.60;;;;;;4999374;28;21091;-76
2022/09/12 03:44:21;;;;;;;18.50;10.33;;;16.00;80.90;;;;;;4999542;28;20554;-75
2022/09/12 03:46:49;;;;;;;19.37;9.30;;;16.00;81.00;;;;;;4998818;28;20590;-75
2022/09/12 03:49:17;;;;;;;16.00;10.20;;;16.00;81.00;;;;;;5000573;28;20527;-75
2022/09/12 03:51:46;;;;;;;15.00;9.43;;;16.00;81.00;;;;;;5003628;28;20513;-75
2022/09/12 03:54:14;;;;;;;19.40;9.13;;;16.00;81.00;;;;;;5003966;28;20514;-76
2022/09/12 03:56:42;;;;;;;18.20;9.50;;;16.10;81.00;;;;;;5004624;28;20454;-76
2022/09/12 03:59:10;;;;;;;12.77;9.37;;;16.10;81.00;;;;;;5003502;28;21183;-76
2022/09/12 04:01:39;;;;;;;15.97;9.13;;;16.10;81.10;;;;;;5001442;28;20607;-76
2022/09/12 04:04:08;;;;;;;13.30;9.00;;;16.10;81.10;;;;;;5003492;28;21245;-76
2022/09/12 04:06:36;;;;;;;14.90;9.03;;;16.10;81.10;;;;;;5018604;28;20517;-76
2022/09/12 04:09:06;;;;;;;14.57;8.93;;;16.10;81.00;;;;;;5019733;28;20472;-76
2022/09/12 04:11:34;;;;;;;12.80;8.23;;;16.10;81.10;;;;;;5003926;28;20485;-76
2022/09/12 04:14:02;;;;;;;15.80;8.90;;;16.10;81.10;;;;;;5003517;28;20964;-76
2022/09/12 04:16:31;;;;;;;13.33;8.23;;;16.10;81.10;;;;;;5003917;28;20553;-75
2022/09/12 04:18:59;;;;;;;20.33;9.13;;;16.00;81.00;;;;;;5002967;28;20475;-75
2022/09/12 04:21:27;;;;;;;19.00;8.47;;;16.00;81.10;;;;;;5016691;28;20480;-75
2022/09/12 04:23:54;;;;;;;13.37;8.63;;;16.00;81.00;;;;;;5000662;28;20456;-75
2022/09/12 04:26:24;;;;;;;16.27;8.73;;;16.00;81.00;;;;;;5003154;28;20509;-75
2022/09/12 04:28:56;;;;;;;41.10;8.90;;;16.00;81.00;;;;;;5007026;28;20505;-75
2022/09/12 04:31:25;;;;;;;28.77;9.00;;;16.00;81.10;;;;;;5002359;28;21370;-75
2022/09/12 04:33:53;;;;;;;34.40;7.50;;;16.00;81.10;;;;;;5007684;28;20526;-75
2022/09/12 04:36:22;;;;;;;22.80;8.00;;;16.00;81.00;;;;;;4998975;28;20468;-76
2022/09/12 04:38:51;;;;;;;17.00;7.70;;;15.90;80.80;;;;;;5004291;28;20552;-75
2022/09/12 04:41:21;;;;;;;14.27;8.37;;;15.90;81.00;;;;;;4999952;28;21041;-75
2022/09/12 04:43:53;;;;;;;18.10;8.40;;;15.80;81.10;;;;;;5000174;28;20498;-76
2022/09/12 04:46:21;;;;;;;36.07;7.77;;;15.80;81.10;;;;;;5000405;28;20492;-75
2022/09/12 04:48:49;;;;;;;23.33;7.37;;;15.80;81.00;;;;;;5004964;28;20897;-75
2022/09/12 04:51:26;;;;;;;12.53;7.20;;;15.80;81.00;;;;;;5000275;28;20499;-75
2022/09/12 04:53:57;;;;;;;12.83;7.07;;;15.70;81.20;;;;;;5002927;28;20467;-75
2022/09/12 04:56:25;;;;;;;19.47;6.17;;;15.80;81.30;;;;;;5002905;28;20865;-75
2022/09/12 04:58:57;;;;;;;14.93;8.13;;;15.80;81.30;;;;;;5003830;28;20985;-75
2022/09/12 05:01:26;;;;;;;54.60;7.87;;;15.80;81.30;;;;;;5004445;28;20492;-75
2022/09/12 05:03:55;;;;;;;36.70;7.77;;;15.80;81.20;;;;;;5003143;28;20472;-75
2022/09/12 05:06:25;;;;;;;32.20;8.17;;;15.80;81.10;;;;;;5005630;28;20516;-75
2022/09/12 05:08:54;;;;;;;19.80;8.20;;;15.70;81.20;;;;;;5006455;28;20570;-76
2022/09/12 05:11:25;;;;;;;92.43;9.43;;;15.70;81.20;;;;;;5006717;28;20473;-76
2022/09/12 05:14:14;;;;;;;13.73;8.00;;;15.70;81.20;;;;;;4999792;28;20556;-75
2022/09/12 05:16:42;;;;;;;40.50;8.37;;;15.70;81.20;;;;;;4997090;28;20571;-75
2022/09/12 05:19:16;;;;;;;67.97;7.80;;;15.70;81.40;;;;;;4999294;28;20469;-75
2022/09/12 05:21:44;;;;;;;37.13;8.00;;;15.70;81.30;;;;;;5001644;28;20528;-75
2022/09/12 05:24:12;;;;;;;24.23;7.83;;;15.70;81.20;;;;;;5015195;28;21877;-75
2022/09/12 05:26:40;;;;;;;37.17;9.67;;;15.70;81.30;;;;;;5008939;28;21081;-75
2022/09/12 05:29:08;;;;;;;40.40;9.30;;;15.60;81.30;;;;;;5002581;28;20975;-75
2022/09/12 05:31:37;;;;;;;18.93;9.00;;;15.50;81.20;;;;;;5003649;28;20508;-75
2022/09/12 05:34:05;;;;;;;32.23;8.30;;;15.50;81.40;;;;;;5006162;28;20459;-76
2022/09/12 05:36:33;;;;;;;20.20;8.73;;;15.40;81.40;;;;;;4999164;28;20465;-75
2022/09/12 05:39:02;;;;;;;16.40;8.50;;;15.40;81.40;;;;;;5012498;28;21183;-75
2022/09/12 05:41:32;;;;;;;35.83;8.30;;;15.30;81.50;;;;;;5004339;28;20997;-76
2022/09/12 05:44:02;;;;;;;12.80;7.90;;;15.30;81.70;;;;;;5004374;28;20959;-75
2022/09/12 05:46:32;;;;;;;12.10;7.53;;;15.30;81.70;;;;;;5002975;28;20542;-75
2022/09/12 05:49:05;;;;;;;19.27;6.80;;;15.30;81.80;;;;;;5001548;28;20912;-75
2022/09/12 05:51:34;;;;;;;15.47;7.87;;;15.30;82.00;;;;;;5010353;28;20489;-75
2022/09/12 05:54:05;;;;;;;12.23;7.23;;;15.40;81.90;;;;;;4999763;28;20574;-75
2022/09/12 05:56:37;;;;;;;10.27;6.40;;;15.40;81.90;;;;;;4998848;28;20520;-75
2022/09/12 05:59:07;;;;;;;12.20;6.97;;;15.40;81.90;;;;;;5007817;28;20459;-76
2022/09/12 06:01:35;;;;;;;12.23;7.40;;;15.40;81.70;;;;;;5003983;28;20644;-75
2022/09/12 06:04:06;;;;;;;15.17;7.93;;;15.40;81.60;;;;;;5005148;28;20460;-75
2022/09/12 06:06:38;;;;;;;12.80;7.40;;;15.40;81.60;;;;;;5002947;28;20532;-75
2022/09/12 06:09:06;;;;;;;13.23;6.60;;;15.40;81.80;;;;;;5001793;28;20468;-75
2022/09/12 06:11:36;;;;;;;23.03;7.10;;;15.40;81.70;;;;;;5003420;28;21317;-75
2022/09/12 06:14:04;;;;;;;23.33;7.67;;;15.40;81.70;;;;;;5001212;28;20543;-75
2022/09/12 06:16:34;;;;;;;32.77;8.30;;;15.40;81.80;;;;;;4996387;28;20516;-75
2022/09/12 06:19:06;;;;;;;13.57;7.37;;;15.40;81.70;;;;;;5003270;28;20555;-75
2022/09/12 06:21:37;;;;;;;18.27;8.17;;;15.40;81.70;;;;;;5012036;28;20485;-75
2022/09/12 06:24:06;;;;;;;26.47;7.70;;;15.40;81.70;;;;;;4999250;28;20543;-75
2022/09/12 06:26:34;;;;;;;21.80;8.77;;;15.30;81.70;;;;;;5002141;28;20547;-75
2022/09/12 06:29:02;;;;;;;14.00;7.80;;;15.30;81.70;;;;;;4995015;28;20464;-76
2022/09/12 06:31:32;;;;;;;14.40;8.47;;;15.30;81.90;;;;;;4995256;28;20516;-76
2022/09/12 06:34:01;;;;;;;14.57;7.70;;;15.30;82.10;;;;;;5001047;28;20524;-75
2022/09/12 06:36:32;;;;;;;19.33;9.60;;;15.40;82.30;;;;;;5003812;28;20514;-75
2022/09/12 06:39:03;;;;;;;10.50;7.53;;;15.50;82.30;;;;;;5000252;28;20532;-75
2022/09/12 06:41:32;;;;;;;16.50;7.80;;;15.60;82.20;;;;;;4999519;28;20516;-76
2022/09/12 06:44:00;;;;;;;12.63;7.37;;;15.60;82.20;;;;;;4997598;28;21277;-75
2022/09/12 06:46:29;;;;;;;13.90;8.17;;;15.70;82.10;;;;;;4995282;28;20516;-75
2022/09/12 06:48:59;;;;;;;12.33;7.73;;;15.70;82.10;;;;;;5001074;28;21001;-74
2022/09/12 06:51:28;;;;;;;15.77;7.07;;;15.80;82.10;;;;;;5003203;28;20496;-75
2022/09/12 06:53:58;;;;;;;12.43;8.20;;;15.80;82.00;;;;;;5002240;28;20535;-75
2022/09/12 06:56:27;;;;;;;13.60;8.03;;;15.80;81.90;;;;;;4994367;28;20462;-75
2022/09/12 06:58:57;;;;;;;11.23;7.20;;;15.80;82.00;;;;;;5000155;28;20448;-75
2022/09/12 07:01:26;;;;;;;10.80;7.60;;;15.90;82.00;;;;;;4998398;28;20517;-75
2022/09/12 07:03:56;;;;;;;11.13;7.43;;;15.90;82.00;;;;;;4996421;28;20460;-75
2022/09/12 07:06:30;;;;;;;11.73;8.30;;;15.90;82.10;;;;;;4995461;28;20540;-74
2022/09/12 07:09:01;;;;;;;10.63;6.87;;;16.00;82.10;;;;;;5007570;28;20471;-75
2022/09/12 07:11:31;;;;;;;16.23;8.50;;;16.00;82.20;;;;;;4996760;28;20494;-75
2022/09/12 07:14:00;;;;;;;12.37;7.87;;;16.10;82.20;;;;;;5004448;28;20516;-75
2022/09/12 07:16:28;;;;;;;13.33;7.33;;;16.10;82.10;;;;;;5001315;28;20511;-75
2022/09/12 07:18:59;;;;;;;12.90;7.70;;;16.10;81.90;;;;;;5001100;28;20460;-75
2022/09/12 07:21:27;;;;;;;13.43;8.80;;;16.10;81.80;;;;;;5017303;28;20531;-75
2022/09/12 07:23:56;;;;;;;13.27;8.47;;;16.10;82.00;;;;;;4999381;28;20469;-75
2022/09/12 07:26:27;;;;;;;11.33;8.10;;;16.10;81.90;;;;;;4998527;28;20485;-75
2022/09/12 07:28:56;;;;;;;12.30;9.00;;;16.10;81.90;;;;;;4998713;28;20492;-75
2022/09/12 07:31:44;;;;;;;12.70;9.03;;;16.10;82.00;;;;;;4996291;28;20484;-76
2022/09/12 07:34:12;;;;;;;13.37;8.00;;;16.10;82.10;;;;;;5001754;28;20465;-75
2022/09/12 07:36:40;;;;;;;13.33;8.43;;;16.20;82.20;;;;;;4998732;28;20461;-76
2022/09/12 07:39:08;;;;;;;11.00;8.03;;;16.30;82.10;;;;;;4999270;28;20720;-75
2022/09/12 07:41:38;;;;;;;12.57;8.30;;;16.30;81.90;;;;;;4994999;28;20528;-74
2022/09/12 07:44:06;;;;;;;13.60;8.60;;;16.30;81.90;;;;;;4997089;28;21190;-75
2022/09/12 07:46:34;;;;;;;17.50;9.60;;;16.30;82.10;;;;;;5000608;28;20488;-75
2022/09/12 07:49:03;;;;;;;14.00;9.27;;;16.40;82.10;;;;;;5003024;28;20467;-75
2022/09/12 07:51:31;;;;;;;13.50;9.60;;;16.40;82.00;;;;;;4997193;28;20559;-74
2022/09/12 07:53:59;;;;;;;13.40;8.07;;;16.40;82.10;;;;;;4995664;28;21082;-76
2022/09/12 07:56:28;;;;;;;12.73;8.80;;;16.50;82.20;;;;;;5001179;28;20456;-76
2022/09/12 07:59:03;;;;;;;14.20;9.27;;;16.60;82.10;;;;;;4994806;28;20473;-75
2022/09/12 08:01:31;;;;;;;15.13;8.50;;;16.60;81.90;;;;;;4996012;28;20489;-76
2022/09/12 08:04:00;;;;;;;13.30;9.23;;;16.60;82.00;;;;;;4997322;28;21089;-75
2022/09/12 08:06:31;;;;;;;16.80;11.20;;;16.70;82.00;;;;;;4996167;28;20487;-76
2022/09/12 08:09:00;;;;;;;14.13;10.23;;;16.70;81.90;;;;;;4998062;28;20451;-76
2022/09/12 08:11:29;;;;;;;17.67;10.70;;;16.70;81.90;;;;;;4999545;28;20484;-76
2022/09/12 08:13:58;;;;;;;15.33;10.77;;;16.70;81.90;;;;;;4999071;28;20448;-76
2022/09/12 08:16:30;;;;;;;17.60;11.40;;;16.70;81.80;;;;;;4996511;28;20518;-75
2022/09/12 08:19:00;;;;;;;17.20;11.47;;;16.80;81.80;;;;;;4999467;28;20491;-76
2022/09/12 08:21:33;;;;;;;15.60;10.80;;;16.80;81.90;;;;;;4982393;28;20523;-76
2022/09/12 08:24:04;;;;;;;16.07;11.00;;;16.80;82.00;;;;;;4996156;28;20796;-75
2022/09/12 08:26:33;;;;;;;13.50;10.00;;;16.90;82.00;;;;;;4998337;28;20446;-75
2022/09/12 08:29:03;;;;;;;16.20;11.10;;;16.90;82.00;;;;;;4997128;28;20575;-75
2022/09/12 08:31:35;;;;;;;16.70;11.17;;;17.00;81.70;;;;;;4997414;28;20504;-75
2022/09/12 08:34:04;;;;;;;15.20;10.73;;;17.00;81.60;;;;;;4996224;28;20487;-76
2022/09/12 08:36:32;;;;;;;15.10;10.67;;;17.00;81.60;;;;;;5000745;28;20469;-75
2022/09/12 08:39:03;;;;;;;15.43;11.33;;;17.00;81.70;;;;;;5003244;28;20485;-75
2022/09/12 08:41:33;;;;;;;16.53;11.07;;;17.10;81.80;;;;;;4994498;28;20477;-76
2022/09/12 08:44:25;;;;;;;17.33;11.67;;;17.10;81.80;;;;;;5003307;28;20485;-76
2022/09/12 08:47:10;;;;;;;15.10;11.50;;;17.20;81.90;;;;;;5004413;28;20476;-76
2022/09/12 08:49:45;;;;;;;14.67;10.97;;;17.30;81.70;;;;;;5000689;28;20492;-75
2022/09/12 08:52:17;;;;;;;16.43;10.90;;;17.30;81.70;;;;;;4998337;28;21040;-76
2022/09/12 08:54:45;;;;;;;16.30;11.67;;;17.40;81.80;;;;;;5001467;28;20461;-76
2022/09/12 08:57:14;;;;;;;17.10;11.63;;;17.50;81.60;;;;;;5000728;28;20476;-76
2022/09/12 08:59:45;;;;;;;14.87;11.30;;;17.50;81.50;;;;;;5001083;28;20564;-75
2022/09/12 09:02:45;;;;;;;17.70;11.20;;;17.50;81.50;;;;;;4992498;28;20514;-75
2022/09/12 09:05:20;;;;;;;18.50;13.43;;;17.60;81.40;;;;;;4998413;28;21356;-75
2022/09/12 09:08:07;;;;;;;16.50;11.10;;;17.60;81.30;;;;;;5003086;28;20508;-74
2022/09/12 09:10:46;;;;;;;17.80;12.00;;;17.50;81.50;;;;;;5001472;28;20460;-74
2022/09/12 09:16:17;;;;;;;19.10;12.10;;;17.50;81.70;;;;;;4997409;28;20993;-74
2022/09/12 09:18:48;;;;;;;14.80;10.87;;;17.60;81.70;;;;;;5005774;28;20455;-74
2022/09/12 09:21:23;;;;;;;20.37;11.00;;;17.60;81.80;;;;;;4996342;28;20484;-75
2022/09/12 09:23:59;;;;;;;14.10;9.93;;;17.60;81.80;;;;;;5002748;28;20461;-75
2022/09/12 09:26:34;;;;;;;16.87;10.67;;;17.70;81.90;;;;;;4998955;28;20575;-76
2022/09/12 09:29:10;;;;;;;14.80;10.23;;;17.80;82.00;;;;;;4999249;28;20516;-73
2022/09/12 09:31:39;;;;;;;16.50;10.10;;;17.80;82.10;;;;;;5004081;28;20550;-74
2022/09/12 09:34:15;;;;;;;13.43;9.63;;;17.90;82.20;;;;;;5004584;28;20472;-74
2022/09/12 09:36:50;;;;;;;14.90;10.47;;;18.00;82.20;;;;;;5006902;28;20456;-74
2022/09/12 09:39:35;;;;;;;13.40;9.67;;;18.10;82.20;;;;;;5008728;28;20454;-74
2022/09/12 09:42:18;;;;;;;15.90;10.80;;;18.10;82.20;;;;;;5007195;28;21028;-76
2022/09/12 09:44:47;;;;;;;13.47;9.87;;;18.20;82.20;;;;;;5008339;28;20861;-76
2022/09/12 09:47:19;;;;;;;12.30;8.97;;;18.30;82.30;;;;;;5004622;28;20471;-74
2022/09/12 09:49:59;;;;;;;13.90;9.70;;;18.30;82.30;;;;;;4999418;28;20499;-79
2022/09/12 09:52:31;;;;;;;17.53;10.63;;;18.40;82.30;;;;;;5010038;28;20480;-79
2022/09/12 09:55:01;;;;;;;15.70;10.57;;;18.50;82.40;;;;;;5008243;28;20552;-80
2022/09/12 09:57:41;;;;;;;15.97;10.70;;;18.50;82.40;;;;;;5003229;28;20554;-78
2022/09/12 10:00:37;;;;;;;13.07;10.10;;;18.60;82.40;;;;;;5009068;28;20472;-80
2022/09/12 10:03:29;;;;;;;15.33;10.93;;;18.70;82.20;;;;;;4977065;28;20496;-78
2022/09/12 10:06:00;;;;;;;16.73;11.83;;;18.70;82.10;;;;;;5006414;28;20461;-79
2022/09/12 10:08:30;;;;;;;14.97;11.10;;;18.70;82.20;;;;;;5007461;28;21280;-79
2022/09/12 10:11:02;;;;;;;16.03;11.30;;;18.70;82.10;;;;;;5005937;28;20551;-79
2022/09/12 10:13:37;;;;;;;15.77;11.10;;;18.80;82.10;;;;;;5005115;28;20466;-79
2022/09/12 10:16:16;;;;;;;18.43;13.53;;;18.90;81.90;;;;;;5001621;28;20893;-79
2022/09/12 10:18:45;;;;;;;16.83;12.00;;;18.90;81.90;;;;;;5009048;28;20911;-79
2022/09/12 10:21:20;;;;;;;16.57;11.83;;;18.90;81.80;;;;;;5009911;28;21287;-78
2022/09/12 10:23:58;;;;;;;17.23;12.33;;;18.90;81.90;;;;;;5002417;28;20464;-78
2022/09/12 10:26:32;;;;;;;16.40;12.07;;;19.10;81.70;;;;;;5001718;28;20533;-81
2022/09/12 10:29:05;;;;;;;17.30;12.10;;;19.10;81.70;;;;;;5002355;28;20540;-78
2022/09/12 10:31:43;;;;;;;18.30;12.27;;;19.20;81.70;;;;;;4997988;28;20479;-77
2022/09/12 10:34:24;;;;;;;22.00;13.80;;;19.30;81.70;;;;;;5000827;28;20467;-78
2022/09/12 10:36:59;;;;;;;19.20;13.23;;;19.30;81.50;;;;;;5002453;28;20488;-78
2022/09/12 10:39:27;;;;;;;17.30;12.90;;;19.40;81.30;;;;;;4997395;28;20482;-78
2022/09/12 10:41:55;;;;;;;17.97;12.03;;;19.40;81.30;;;;;;4997090;28;20559;-77
2022/09/12 10:44:28;;;;;;;23.80;14.40;;;19.50;81.20;;;;;;4996192;28;20515;-77
2022/09/12 10:46:57;;;;;;;18.27;13.03;;;19.50;81.10;;;;;;5007561;28;20963;-79
2022/09/12 10:49:30;;;;;;;19.40;13.20;;;19.60;81.10;;;;;;5002379;28;20923;-78
2022/09/12 10:52:20;;;;;;;16.60;12.50;;;19.60;81.00;;;;;;4993902;28;20552;-77
2022/09/12 10:54:48;;;;;;;19.87;12.87;;;19.70;80.90;;;;;;5001480;28;20493;-76
2022/09/12 10:57:44;;;;;;;18.07;13.30;;;19.70;80.90;;;;;;4992720;28;20493;-76
2022/09/12 11:00:16;;;;;;;18.20;12.37;;;19.80;80.70;;;;;;4996592;28;20560;-76
2022/09/12 11:02:57;;;;;;;19.10;12.83;;;19.80;80.70;;;;;;4999466;28;20591;-76
2022/09/12 11:05:45;;;;;;;18.57;12.17;;;19.90;80.50;;;;;;4999439;28;20470;-77
2022/09/12 11:08:37;;;;;;;20.13;13.80;;;19.90;80.30;;;;;;4990924;28;21148;-77
2022/09/12 11:11:12;;;;;;;18.80;13.70;;;20.00;80.30;;;;;;4997577;28;20590;-78
2022/09/12 11:13:54;;;;;;;20.10;13.20;;;20.00;80.20;;;;;;5000601;28;20495;-78
2022/09/12 11:16:33;;;;;;;19.60;13.53;;;20.10;80.00;;;;;;5002054;28;20654;-77
2022/09/12 11:19:15;;;;;;;17.87;13.13;;;20.20;79.90;;;;;;5000977;28;20458;-76
2022/09/12 11:21:57;;;;;;;16.73;11.60;;;20.20;79.80;;;;;;5001720;28;20475;-78
2022/09/12 11:24:48;;;;;;;21.27;13.93;;;20.30;79.60;;;;;;5002642;28;20506;-77
2022/09/12 11:27:32;;;;;;;15.00;11.10;;;20.40;79.30;;;;;;4994786;28;20886;-77
2022/09/12 11:30:05;;;;;;;16.90;11.60;;;20.50;79.00;;;;;;5003324;28;21007;-77
2022/09/12 11:33:04;;;;;;;14.67;11.03;;;20.50;78.70;;;;;;5000622;28;20541;-77
2022/09/12 11:35:33;;;;;;;17.37;12.53;;;20.60;78.50;;;;;;5002193;28;20961;-77
2022/09/12 11:38:31;;;;;;;18.00;11.77;;;20.60;78.10;;;;;;4999528;28;20612;-77
2022/09/12 11:41:01;;;;;;;16.13;11.50;;;20.70;77.90;;;;;;4999614;28;20873;-77
2022/09/12 11:43:37;;;;;;;18.97;11.47;;;20.70;77.70;;;;;;4997866;28;20459;-77
2022/09/12 11:46:14;;;;;;;16.63;10.90;;;20.70;77.40;;;;;;4999985;28;20466;-77
2022/09/12 11:48:49;;;;;;;14.00;9.20;;;20.80;76.90;;;;;;5003138;28;20886;-77
2022/09/12 11:51:19;;;;;;;14.33;9.50;;;20.80;76.80;;;;;;5002270;28;20514;-77
2022/09/12 11:54:04;;;;;;;16.73;9.90;;;20.90;76.50;;;;;;5004300;28;21101;-77
2022/09/12 11:56:38;;;;;;;13.43;9.13;;;20.90;76.10;;;;;;5003662;28;20464;-77
2022/09/12 11:59:15;;;;;;;13.10;9.03;;;21.00;75.90;;;;;;5019935;28;20460;-77
2022/09/12 12:01:47;;;;;;;16.40;9.43;;;21.10;75.60;;;;;;5001385;28;20539;-76
2022/09/12 12:04:21;;;;;;;13.80;8.70;;;21.10;75.30;;;;;;5021077;28;20459;-77
2022/09/12 12:06:55;;;;;;;11.30;7.00;;;21.20;74.90;;;;;;5005652;28;20461;-76
2022/09/12 12:09:23;;;;;;;9.10;6.70;;;21.20;74.60;;;;;;5003357;28;20487;-77
2022/09/12 12:11:55;;;;;;;10.73;7.53;;;21.30;74.30;;;;;;5021451;28;20577;-77
2022/09/12 12:14:30;;;;;;;9.70;7.17;;;21.40;73.60;;;;;;5005583;28;20799;-77
2022/09/12 12:16:58;;;;;;;11.53;7.37;;;21.40;73.30;;;;;;5009300;28;20485;-77
2022/09/12 12:19:33;;;;;;;12.53;6.60;;;21.50;73.00;;;;;;5006421;28;20933;-77
2022/09/12 12:22:16;;;;;;;9.33;6.23;;;21.50;72.30;;;;;;5006285;28;20728;-77
2022/09/12 12:25:24;;;;;;;9.30;6.23;;;21.50;72.00;;;;;;5017727;28;20493;-77
2022/09/12 12:28:00;;;;;;;9.67;6.47;;;21.60;71.80;;;;;;5002909;28;20559;-77
2022/09/12 12:31:01;;;;;;;9.80;6.60;;;21.60;71.10;;;;;;5009439;28;20492;-77
2022/09/12 12:33:53;;;;;;;9.53;6.67;;;21.70;70.40;;;;;;5003322;28;20629;-77
2022/09/12 12:36:39;;;;;;;8.90;6.00;;;21.70;70.60;;;;;;5004724;28;20483;-77
2022/09/12 12:39:44;;;;;;;8.13;5.43;;;21.70;70.30;;;;;;5003986;28;20538;-77
2022/09/12 12:43:01;;;;;;;7.70;4.90;;;21.70;69.90;;;;;;5004156;28;20472;-78
2022/09/12 12:46:05;;;;;;;6.90;4.47;;;21.70;69.30;;;;;;5004145;28;20569;-77
2022/09/12 12:48:48;;;;;;;8.07;4.90;;;21.70;69.10;;;;;;4996092;28;20566;-77
2022/09/12 12:51:37;;;;;;;9.07;5.30;;;21.80;68.80;;;;;;5006011;28;20977;-78
2022/09/12 12:54:22;;;;;;;7.47;5.20;;;21.80;68.40;;;;;;5008049;28;20540;-77
2022/09/12 12:57:00;;;;;;;8.80;5.57;;;21.80;68.00;;;;;;5022563;28;20481;-77
2022/09/12 12:59:29;;;;;;;7.83;5.30;;;21.90;67.80;;;;;;5002821;28;20464;-78
2022/09/12 13:01:59;;;;;;;7.03;5.10;;;21.90;67.70;;;;;;4999542;28;21426;-76
2022/09/12 13:04:32;;;;;;;7.40;4.77;;;21.90;67.50;;;;;;4998701;28;20505;-78
2022/09/12 13:07:05;;;;;;;7.47;4.97;;;22.00;67.30;;;;;;5001977;28;20476;-78
2022/09/12 13:09:43;;;;;;;8.23;5.17;;;22.10;67.00;;;;;;5002852;28;20498;-76